Time;durP1;ratioP1;P1;durP2;ratioP2;P2;SDS_P1;SDS_P2;PMS_P1;PMS_P2;Temp;Humidity;BMP_temperature;BMP_pressure;BME280_temperature;BME280_humidity;BME280_pressure;Samples;Min_cycle;Max_cycle;Signal;HPM_P1;HPM_P2
2023/09/28 03:46:27;;;;;;;9.90;8.00;;;;;;;16.16;100.00;100642.23;101493;1303;601597;-60
2023/09/28 03:48:55;;;;;;;10.50;7.50;;;;;;;16.55;100.00;100645.27;103822;1270;61609;-60
2023/09/28 03:51:23;;;;;;;9.40;7.10;;;;;;;16.56;100.00;100648.20;103705;1267;60075;-60
2023/09/28 03:53:52;;;;;;;8.60;7.20;;;;;;;16.52;100.00;100642.39;103616;1288;72204;-60
2023/09/28 03:56:25;;;;;;;10.50;7.60;;;;;;;16.48;100.00;100643.67;103614;1286;69520;-60
2023/09/28 03:58:55;;;;;;;9.10;7.90;;;;;;;16.44;100.00;100644.76;103396;1270;360955;-65
2023/09/28 04:01:23;;;;;;;8.70;7.80;;;;;;;16.42;100.00;100645.58;103874;1270;61445;-61
2023/09/28 04:03:50;;;;;;;9.20;7.40;;;;;;;16.40;100.00;100646.04;103882;1279;60728;-60
2023/09/28 04:06:18;;;;;;;8.60;7.70;;;;;;;16.40;100.00;100648.15;103898;1268;71907;-60
2023/09/28 04:08:46;;;;;;;8.70;7.90;;;;;;;16.38;100.00;100644.71;104093;1263;68463;-61
2023/09/28 04:11:17;;;;;;;12.10;7.20;;;;;;;16.29;100.00;100636.48;103960;1280;72952;-60
2023/09/28 04:13:44;;;;;;;;;;;;;;;16.34;100.00;100649.66;103896;1264;62400;-61
2023/09/28 04:16:12;;;;;;;9.30;7.50;;;;;;;16.33;100.00;100645.80;104067;1263;59441;-60
2023/09/28 04:18:40;;;;;;;8.70;7.00;;;;;;;16.32;100.00;100654.38;107185;1262;72920;-60
2023/09/28 04:21:08;;;;;;;8.10;7.20;;;;;;;16.31;100.00;100650.86;105874;1257;69553;-60
2023/09/28 04:23:36;;;;;;;;;;;;;;;16.30;100.00;100649.88;104347;1263;72395;-58
2023/09/28 04:26:21;;;;;;;7.80;6.90;;;;;;;16.32;100.00;100647.83;101247;1293;601653;-60
2023/09/28 04:28:49;;;;;;;8.20;7.30;;;;;;;16.29;100.00;100653.10;103909;1266;61390;-58
2023/09/28 04:31:18;;;;;;;7.90;7.10;;;;;;;16.31;100.00;100647.71;103515;1266;59439;-60
2023/09/28 04:33:47;;;;;;;8.90;7.60;;;;;;;16.32;100.00;100650.30;103612;1270;72071;-59
2023/09/28 04:36:14;;;;;;;8.30;7.30;;;;;;;16.34;100.00;100652.52;103546;1267;69165;-61
2023/09/28 04:38:42;;;;;;;8.50;7.70;;;;;;;16.34;100.00;100655.14;103464;1270;72969;-60
2023/09/28 04:41:11;;;;;;;;;;;;;;;16.36;100.00;100657.35;103890;1273;232766;-59
2023/09/28 04:43:40;;;;;;;8.80;7.40;;;;;;;16.37;100.00;100653.27;103819;1268;60557;-60
2023/09/28 04:46:08;;;;;;;11.00;7.50;;;;;;;16.37;100.00;100654.16;103890;1269;71855;-59
2023/09/28 04:48:36;;;;;;;;;;;;;;;16.40;100.00;100653.63;104093;1266;69163;-59
2023/09/28 04:51:05;;;;;;;8.00;7.20;;;;;;;16.43;100.00;100659.69;103901;1268;72927;-59
2023/09/28 04:53:33;;;;;;;9.70;7.60;;;;;;;16.44;100.00;100658.41;103890;1269;61418;-60
2023/09/28 04:56:11;;;;;;;10.00;7.10;;;;;;;16.45;100.00;100662.92;103934;1267;59759;-59
2023/09/28 04:58:39;;;;;;;11.80;7.00;;;;;;;16.47;100.00;100660.54;103869;1286;72870;-59
2023/09/28 05:01:06;;;;;;;10.60;7.10;;;;;;;16.50;100.00;100665.13;103959;1269;69106;-59
2023/09/28 05:03:34;;;;;;;8.00;7.30;;;;;;;16.54;100.00;100664.38;103882;1265;72868;-59
2023/09/28 05:06:04;;;;;;;10.80;7.80;;;;;;;16.60;100.00;100667.31;103851;1283;61547;-60
2023/09/28 05:08:35;;;;;;;10.70;7.50;;;;;;;16.65;100.00;100672.48;103872;1279;59678;-59
2023/09/28 05:11:02;;;;;;;9.00;8.20;;;;;;;16.71;100.00;100667.96;103932;1282;73856;-59
2023/09/28 05:13:30;;;;;;;12.10;8.20;;;;;;;16.76;100.00;100670.92;103934;1284;69164;-60
2023/09/28 05:15:58;;;;;;;11.70;8.70;;;;;;;16.80;100.00;100669.61;103734;1280;72435;-60
2023/09/28 05:18:26;;;;;;;9.50;7.80;;;;;;;16.86;100.00;100669.84;103902;1263;61793;-60
2023/09/28 05:20:53;;;;;;;;;;;;;;;16.90;100.00;100668.40;104091;1273;60321;-61
2023/09/28 05:23:21;;;;;;;;;;;;;;;16.97;100.00;100667.70;103920;1264;72828;-61
2023/09/28 05:25:49;;;;;;;9.70;7.00;;;;;;;17.04;100.00;100671.23;104136;1266;69746;-61
2023/09/28 05:28:17;;;;;;;;;;;;;;;17.11;100.00;100670.14;104414;1269;71734;-61
2023/09/28 05:30:45;;;;;;;10.40;8.00;;;;;;;17.22;100.00;100671.13;104287;1256;62378;-61
2023/09/28 05:33:13;;;;;;;9.30;7.90;;;;;;;17.33;100.00;100673.71;104268;1253;59704;-59
2023/09/28 05:35:41;;;;;;;9.90;8.00;;;;;;;17.42;100.00;100672.55;104315;1276;73677;-60
2023/09/28 05:38:11;;;;;;;10.60;9.20;;;;;;;17.49;100.00;100678.01;104476;1254;69118;-60
2023/09/28 05:40:39;;;;;;;9.20;8.30;;;;;;;17.58;100.00;100678.20;104288;1278;72939;-60
2023/09/28 05:43:07;;;;;;;9.90;8.00;;;;;;;17.67;100.00;100674.00;104262;1258;61460;-59
2023/09/28 05:45:34;;;;;;;10.80;8.60;;;;;;;17.75;100.00;100674.59;104439;1259;59914;-60
2023/09/28 05:48:03;;;;;;;9.40;8.50;;;;;;;17.81;100.00;100675.69;104489;1272;73666;-60
2023/09/28 05:50:30;;;;;;;10.80;8.50;;;;;;;17.88;100.00;100676.00;104257;1260;69036;-59
2023/09/28 05:52:58;;;;;;;9.30;8.10;;;;;;;17.95;100.00;100674.58;104292;1258;72436;-60
2023/09/28 05:55:26;;;;;;;8.90;8.00;;;;;;;18.03;100.00;100674.27;108405;1254;61776;-60
2023/09/28 05:57:56;;;;;;;11.70;8.30;;;;;;;18.12;100.00;100671.28;108393;1254;58745;-61
2023/09/28 06:00:24;;;;;;;9.40;8.50;;;;;;;18.23;100.00;100669.96;108479;1253;73481;-61
2023/09/28 06:02:52;;;;;;;9.10;8.10;;;;;;;18.32;100.00;100671.19;108434;1253;69823;-61
2023/09/28 06:05:19;;;;;;;11.00;8.20;;;;;;;18.40;100.00;100674.09;108334;1254;72108;-61
2023/09/28 06:07:47;;;;;;;12.00;8.10;;;;;;;18.50;100.00;100673.34;108433;1254;61771;-60
2023/09/28 06:10:16;;;;;;;10.50;8.50;;;;;;;18.60;100.00;100675.23;108368;1254;59676;-61
2023/09/28 06:12:44;;;;;;;9.70;8.20;;;;;;;18.71;100.00;100676.85;108378;1254;73229;-61
2023/09/28 06:15:14;;;;;;;12.70;7.30;;;;;;;18.82;100.00;100677.29;108314;1254;69714;-60
2023/09/28 06:17:42;;;;;;;11.00;7.70;;;;;;;18.91;100.00;100681.93;108353;1254;71174;-60
2023/09/28 06:20:10;;;;;;;9.50;7.90;;;;;;;18.99;100.00;100679.82;108314;1253;61434;-60
2023/09/28 06:22:40;;;;;;;10.70;8.10;;;;;;;19.08;100.00;100678.53;108162;1256;59831;-61
2023/09/28 06:25:08;;;;;;;9.50;7.80;;;;;;;19.18;100.00;100683.27;108150;1254;73398;-60
2023/09/28 06:27:38;;;;;;;9.50;8.00;;;;;;;19.29;100.00;100681.71;108190;1254;70751;-62
2023/09/28 06:30:09;;;;;;;9.80;8.10;;;;;;;19.37;100.00;100682.95;108187;1254;72043;-61
2023/09/28 06:32:36;;;;;;;13.70;7.90;;;;;;;19.48;100.00;100685.16;108363;1253;60432;-61
2023/09/28 06:35:04;;;;;;;9.80;7.60;;;;;;;19.56;100.00;100681.39;108393;1253;58708;-61
2023/09/28 06:37:32;;;;;;;10.70;8.00;;;;;;;19.66;100.00;100681.32;108332;1253;73708;-61
2023/09/28 06:40:00;;;;;;;;;;;;;;;19.77;100.00;100684.54;108457;1254;69532;-61
2023/09/28 06:42:28;;;;;;;;;;;;;;;19.86;100.00;100688.92;108449;1254;72728;-61
2023/09/28 06:45:07;;;;;;;11.60;7.20;;;;;;;19.96;100.00;100689.51;108506;1253;61834;-61
2023/09/28 06:47:35;;;;;;;11.00;7.90;;;;;;;20.05;100.00;100689.99;108349;1254;59667;-61
2023/09/28 06:50:25;;;;;;;12.90;7.90;;;;;;;20.18;100.00;100692.55;108329;1254;72898;-61
2023/09/28 06:52:53;;;;;;;10.70;7.10;;;;;;;20.28;100.00;100692.95;108357;1253;69100;-60
2023/09/28 06:55:24;;;;;;;;;;;;;;;20.37;100.00;100690.17;108384;1254;72304;-62
2023/09/28 06:57:52;;;;;;;12.90;7.50;;;;;;;20.50;100.00;100695.05;108359;1254;61740;-62
2023/09/28 07:00:20;;;;;;;9.90;7.30;;;;;;;20.59;100.00;100694.61;108355;1254;59690;-62
2023/09/28 07:02:47;;;;;;;;;;;;;;;20.69;100.00;100692.89;108427;1253;72985;-62
2023/09/28 07:05:16;;;;;;;11.90;8.10;;;;;;;20.78;100.00;100690.36;108351;1254;69214;-62
2023/09/28 07:07:45;;;;;;;14.70;7.90;;;;;;;20.87;100.00;100688.80;108448;1253;72467;-62
2023/09/28 07:10:13;;;;;;;9.10;7.80;;;;;;;20.92;100.00;100686.13;108346;1254;62751;-63
2023/09/28 07:12:43;;;;;;;11.80;7.80;;;;;;;21.01;100.00;100686.59;108366;1254;59679;-62
2023/09/28 07:15:11;;;;;;;16.00;8.80;;;;;;;21.12;100.00;100685.29;108333;1253;72889;-63
2023/09/28 07:17:39;;;;;;;;;;;;;;;21.22;100.00;100683.31;108476;1253;69099;-61
2023/09/28 07:20:07;;;;;;;;;;;;;;;21.36;100.00;100681.92;108295;1253;71727;-61
2023/09/28 07:22:35;;;;;;;16.00;8.50;;;;;;;21.49;100.00;100687.65;108441;1253;62387;-61
2023/09/28 07:25:06;;;;;;;12.40;8.10;;;;;;;21.61;100.00;100688.21;108213;1254;58774;-61
2023/09/28 07:27:33;;;;;;;10.40;8.10;;;;;;;21.70;100.00;100687.38;108281;1253;71982;-63
2023/09/28 07:30:05;;;;;;;12.20;8.20;;;;;;;21.80;100.00;100681.12;108280;1254;69667;-61
2023/09/28 07:32:33;;;;;;;12.90;8.00;;;;;;;21.90;100.00;100683.44;108236;1254;72268;-63
2023/09/28 07:35:01;;;;;;;16.40;8.80;;;;;;;21.98;100.00;100681.04;108170;1254;61545;-62
2023/09/28 07:37:32;;;;;;;10.10;8.20;;;;;;;22.11;100.00;100684.55;108338;1254;60081;-62
2023/09/28 07:40:01;;;;;;;14.30;8.10;;;;;;;22.25;100.00;100681.79;108243;1254;75818;-61
2023/09/28 07:42:30;;;;;;;12.90;7.70;;;;;;;22.34;100.00;100679.47;108436;1253;69064;-62
2023/09/28 07:44:58;;;;;;;14.00;8.10;;;;;;;22.44;100.00;100679.11;108363;1254;72582;-61
2023/09/28 07:47:26;;;;;;;12.50;7.90;;;;;;;22.54;100.00;100677.21;108399;1254;61688;-61
2023/09/28 07:49:53;;;;;;;14.60;8.20;;;;;;;22.64;100.00;100679.55;108430;1254;60987;-62
2023/09/28 07:52:21;;;;;;;;;;;;;;;22.74;100.00;100677.19;108442;1254;72946;-62
2023/09/28 07:54:49;;;;;;;12.90;7.30;;;;;;;22.83;100.00;100674.29;108467;1254;70060;-62
2023/09/28 07:57:19;;;;;;;10.70;8.00;;;;;;;22.91;100.00;100671.14;108447;1253;72475;-62
2023/09/28 07:59:47;;;;;;;;;;;;;;;23.03;100.00;100672.24;108451;1253;61470;-63
2023/09/28 08:02:15;;;;;;;11.40;6.90;;;;;;;23.13;100.00;100672.83;108383;1254;60121;-62
2023/09/28 08:04:42;;;;;;;;;;;;;;;23.25;100.00;100672.30;108335;1253;72823;-63
2023/09/28 08:07:10;;;;;;;9.30;6.80;;;;;;;23.39;100.00;100672.59;108388;1254;69417;-62
2023/09/28 08:09:38;;;;;;;15.40;6.70;;;;;;;23.49;100.00;100674.80;108418;1254;72901;-61
2023/09/28 08:12:06;;;;;;;11.30;7.40;;;;;;;23.58;100.00;100676.75;108348;1256;60428;-64
2023/09/28 08:14:36;;;;;;;7.50;6.50;;;;;;;23.66;99.43;100680.21;108392;1254;59780;-63
2023/09/28 08:17:04;;;;;;;12.20;7.10;;;;;;;23.75;97.67;100676.84;108397;1256;72868;-62
2023/09/28 08:19:32;;;;;;;;;;;;;;;23.83;96.15;100671.41;108312;1254;69210;-62
2023/09/28 08:22:00;;;;;;;;;;;;;;;23.90;93.65;100664.89;108223;1258;73327;-63
2023/09/28 08:24:28;;;;;;;14.60;6.80;;;;;;;23.97;92.78;100667.60;108243;1254;62793;-62
2023/09/28 08:26:56;;;;;;;;;;;;;;;24.06;94.66;100666.98;108268;1257;60692;-63
2023/09/28 08:29:24;;;;;;;;;;;;;;;24.15;90.61;100668.23;108231;1254;71720;-62
2023/09/28 08:31:51;;;;;;;14.00;6.90;;;;;;;24.21;89.80;100663.98;108280;1253;69039;-63
2023/09/28 08:34:20;;;;;;;18.50;6.30;;;;;;;24.27;92.43;100660.39;108294;1257;72554;-63
2023/09/28 08:37:04;;;;;;;7.30;6.10;;;;;;;24.35;89.51;100661.88;108262;1257;62067;-62
2023/09/28 08:39:32;;;;;;;12.80;7.40;;;;;;;24.42;89.85;100660.02;108327;1254;59763;-62
2023/09/28 08:42:01;;;;;;;11.90;6.20;;;;;;;24.50;88.41;100659.70;108407;1254;74344;-62
2023/09/28 08:44:31;;;;;;;11.60;6.30;;;;;;;24.58;87.63;100656.15;108359;1254;69796;-63
2023/09/28 08:46:59;;;;;;;12.10;6.10;;;;;;;24.67;86.29;100656.66;108287;1253;73318;-64
2023/09/28 08:49:27;;;;;;;7.40;5.80;;;;;;;24.77;85.63;100649.00;108358;1253;61416;-65
2023/09/28 08:51:55;;;;;;;;;;;;;;;24.88;81.97;100643.21;108398;1254;60332;-69
2023/09/28 08:54:22;;;;;;;11.30;5.40;;;;;;;24.98;81.67;100643.96;108415;1254;74043;-67
2023/09/28 08:56:52;;;;;;;14.90;6.20;;;;;;;25.05;81.93;100643.29;108461;1254;69533;-65
2023/09/28 08:59:20;;;;;;;10.10;6.00;;;;;;;25.13;79.97;100637.92;107970;1254;72676;-66
2023/09/28 09:01:47;;;;;;;;;;;;;;;25.25;78.29;100641.91;108323;1254;58853;-63
2023/09/28 09:04:15;;;;;;;15.30;6.00;;;;;;;25.37;77.80;100634.97;108330;1259;59420;-63
2023/09/28 09:06:43;;;;;;;16.10;6.80;;;;;;;25.47;76.14;100634.97;108357;1253;73977;-64
2023/09/28 09:09:15;;;;;;;11.70;6.00;;;;;;;25.57;75.94;100633.73;108425;1254;69466;-64
2023/09/28 09:11:50;;;;;;;11.20;5.70;;;;;;;25.64;74.70;100627.17;108205;1254;72502;-64
2023/09/28 09:14:20;;;;;;;13.20;6.30;;;;;;;25.71;73.70;100631.19;108417;1256;62697;-63
2023/09/28 09:16:48;;;;;;;13.00;6.40;;;;;;;25.77;71.90;100626.34;108396;1256;60719;-62
2023/09/28 09:19:16;;;;;;;13.40;6.90;;;;;;;25.83;71.13;100621.66;108396;1254;73672;-63
2023/09/28 09:21:44;;;;;;;10.70;6.40;;;;;;;25.89;69.95;100621.17;108235;1253;70371;-62
2023/09/28 09:24:13;;;;;;;13.30;6.00;;;;;;;25.93;69.90;100616.08;108261;1255;73882;-63
2023/09/28 09:26:51;;;;;;;11.80;6.20;;;;;;;26.00;68.22;100617.25;108437;1254;60779;-64
2023/09/28 09:29:19;;;;;;;9.50;6.10;;;;;;;26.10;67.68;100611.36;108344;1254;60019;-64
2023/09/28 09:31:47;;;;;;;10.50;6.10;;;;;;;26.16;66.25;100612.91;108436;1253;75731;-63
2023/09/28 09:34:19;;;;;;;10.90;5.60;;;;;;;26.24;66.08;100606.27;108327;1254;69073;-63
2023/09/28 09:36:51;;;;;;;11.20;6.00;;;;;;;26.28;65.22;100607.45;108353;1257;72448;-63
2023/09/28 09:39:25;;;;;;;8.80;6.30;;;;;;;26.32;63.16;100599.89;108410;1253;59898;-63
2023/09/28 09:41:54;;;;;;;14.30;6.20;;;;;;;26.40;63.88;100602.91;108372;1254;59035;-62
2023/09/28 09:44:24;;;;;;;9.80;6.30;;;;;;;26.46;63.36;100600.61;108384;1254;74326;-62
2023/09/28 09:46:53;;;;;;;9.00;6.20;;;;;;;26.51;61.44;100600.98;108440;1254;69600;-64
2023/09/28 09:49:24;;;;;;;11.60;6.40;;;;;;;26.57;62.01;100594.27;108327;1254;73326;-64
2023/09/28 09:51:52;;;;;;;9.60;5.60;;;;;;;26.65;62.89;100593.91;108337;1254;60440;-63
2023/09/28 09:54:20;;;;;;;14.60;5.90;;;;;;;26.75;60.98;100588.86;108242;1254;60424;-64
2023/09/28 09:56:49;;;;;;;8.50;5.90;;;;;;;26.82;59.94;100588.20;108293;1254;74216;-63
2023/09/28 09:59:18;;;;;;;11.90;6.50;;;;;;;26.80;56.14;100585.98;108393;1253;70327;-63
2023/09/28 10:01:56;;;;;;;7.90;5.70;;;;;;;26.84;55.93;100588.48;108309;1254;72487;-63
2023/09/28 10:04:26;;;;;;;12.70;6.80;;;;;;;26.94;56.34;100584.35;108240;1255;60353;-63
2023/09/28 10:06:57;;;;;;;9.70;6.00;;;;;;;27.01;58.41;100582.77;108341;1254;58656;-61
2023/09/28 10:09:25;;;;;;;11.90;5.90;;;;;;;27.12;57.23;100582.77;108313;1254;74055;-61
2023/09/28 10:11:59;;;;;;;6.90;6.00;;;;;;;27.23;56.82;100583.47;108381;1253;69202;-62
2023/09/28 10:14:27;;;;;;;11.80;6.20;;;;;;;27.31;56.00;100579.33;108314;1254;72453;-62
2023/09/28 10:16:55;;;;;;;8.90;5.50;;;;;;;27.38;55.04;100575.23;108412;1254;59800;-62
2023/09/28 10:19:24;;;;;;;11.70;6.10;;;;;;;27.44;54.12;100573.89;108129;1254;60273;-61
2023/09/28 10:21:55;;;;;;;13.20;6.20;;;;;;;27.52;54.85;100572.02;108291;1254;74635;-61
2023/09/28 10:24:34;;;;;;;7.60;6.00;;;;;;;27.58;54.36;100567.63;108341;1253;70125;-62
2023/09/28 10:27:09;;;;;;;12.90;6.00;;;;;;;27.64;54.07;100566.49;108179;1255;73161;-62
2023/09/28 10:29:39;;;;;;;9.10;6.00;;;;;;;27.71;54.82;100566.20;108283;1254;58897;-61
2023/09/28 10:32:26;;;;;;;14.00;6.00;;;;;;;27.75;54.13;100566.63;108160;1253;60065;-63
2023/09/28 10:35:13;;;;;;;12.40;5.90;;;;;;;27.80;54.31;100561.66;108281;1254;76062;-61
2023/09/28 10:37:41;;;;;;;10.50;6.30;;;;;;;27.87;53.26;100564.52;108367;1254;68246;-59
2023/09/28 10:40:09;;;;;;;8.50;5.80;;;;;;;27.84;52.92;100559.65;108334;1254;73569;-59
2023/09/28 10:42:36;;;;;;;7.80;5.70;;;;;;;27.85;52.75;100551.05;108296;1254;59808;-63
2023/09/28 10:45:05;;;;;;;11.90;5.50;;;;;;;27.89;52.63;100547.43;107878;1254;59819;-61
2023/09/28 10:47:33;;;;;;;10.30;5.70;;;;;;;27.94;53.23;100547.93;108343;1254;74421;-59
2023/09/28 10:50:04;;;;;;;6.00;5.00;;;;;;;27.99;52.10;100546.64;108365;1254;69005;-60
2023/09/28 10:52:32;;;;;;;6.70;5.50;;;;;;;28.07;51.25;100544.71;108481;1255;73200;-62
2023/09/28 10:55:00;;;;;;;;;;;;;;;28.13;49.76;100542.96;108379;1254;59787;-61
2023/09/28 10:57:31;;;;;;;8.40;5.20;;;;;;;28.18;48.64;100535.25;108371;1254;58532;-64
2023/09/28 11:00:03;;;;;;;10.70;4.90;;;;;;;28.22;49.92;100539.94;108191;1254;74275;-64
2023/09/28 11:02:35;;;;;;;15.40;5.30;;;;;;;28.27;48.84;100533.42;108382;1254;70213;-63
2023/09/28 11:05:07;;;;;;;9.60;4.70;;;;;;;28.30;48.45;100534.70;108344;1254;73704;-63
2023/09/28 11:07:36;;;;;;;7.20;5.20;;;;;;;28.37;47.78;100529.52;108360;1254;60858;-63
2023/09/28 11:10:05;;;;;;;10.20;5.50;;;;;;;28.49;47.68;100522.51;108370;1254;60455;-63
2023/09/28 11:12:34;;;;;;;7.20;4.90;;;;;;;28.57;47.04;100520.79;108309;1254;73736;-61
2023/09/28 11:15:03;;;;;;;8.30;4.70;;;;;;;28.66;46.28;100512.46;108259;1254;70109;-62
2023/09/28 11:17:31;;;;;;;10.40;4.70;;;;;;;28.75;45.29;100515.16;108453;1253;72521;-63
2023/09/28 11:19:59;;;;;;;5.90;4.50;;;;;;;28.77;44.62;100513.46;108183;1257;59852;-61
2023/09/28 11:22:28;;;;;;;9.90;4.80;;;;;;;28.73;44.27;100513.65;107938;1254;60018;-62
2023/09/28 11:24:57;;;;;;;10.00;4.50;;;;;;;28.73;44.31;100506.31;108198;1254;73625;-62
2023/09/28 11:27:24;;;;;;;11.70;4.40;;;;;;;28.74;43.34;100507.05;108233;1254;69444;-61
2023/09/28 11:29:56;;;;;;;7.20;4.40;;;;;;;28.81;42.60;100509.04;108094;1254;73174;-62
2023/09/28 11:32:24;;;;;;;5.80;4.00;;;;;;;28.88;41.32;100508.33;108332;1255;59760;-62
2023/09/28 11:34:53;;;;;;;8.30;4.40;;;;;;;28.96;40.24;100504.76;108399;1254;58794;-61
2023/09/28 11:37:24;;;;;;;6.10;4.80;;;;;;;29.04;40.71;100501.75;108038;1254;73677;-61
2023/09/28 11:39:52;;;;;;;11.60;5.10;;;;;;;29.15;40.47;100502.44;108391;1254;69632;-61
2023/09/28 11:42:22;;;;;;;8.40;5.20;;;;;;;29.21;40.14;100503.38;108361;1254;72261;-62
2023/09/28 11:44:50;;;;;;;6.90;4.30;;;;;;;29.20;40.14;100498.41;108313;1254;59767;-61
2023/09/28 11:47:20;;;;;;;8.10;5.30;;;;;;;29.20;40.01;100497.15;108331;1254;59727;-64
2023/09/28 11:49:49;;;;;;;5.90;4.40;;;;;;;29.23;39.23;100496.98;108118;1254;74540;-61
2023/09/28 11:52:17;;;;;;;9.60;4.70;;;;;;;29.26;38.98;100488.52;108325;1254;69086;-62
2023/09/28 11:54:45;;;;;;;8.80;4.50;;;;;;;29.28;39.09;100488.84;108362;1254;71728;-63
2023/09/28 11:57:16;;;;;;;7.30;4.30;;;;;;;29.36;38.89;100483.93;108461;1253;59778;-62
2023/09/28 11:59:44;;;;;;;11.20;4.90;;;;;;;29.40;38.43;100477.48;108414;1254;59813;-62
2023/09/28 12:02:13;;;;;;;17.40;4.70;;;;;;;29.45;38.16;100477.48;108374;1254;73427;-63
2023/09/28 12:04:41;;;;;;;6.50;4.50;;;;;;;29.53;37.41;100477.27;108462;1254;69997;-62
2023/09/28 12:07:09;;;;;;;;;;;;;;;29.60;37.73;100473.66;108315;1254;72409;-64
2023/09/28 12:09:37;;;;;;;10.20;4.90;;;;;;;29.66;37.95;100475.39;108295;1254;59970;-63
2023/09/28 12:12:21;;;;;;;7.80;4.40;;;;;;;29.69;37.92;100471.19;108364;1254;59986;-60
2023/09/28 12:14:49;;;;;;;5.70;4.30;;;;;;;29.76;37.19;100471.41;108380;1254;73669;-61
2023/09/28 12:17:16;;;;;;;;;;;;;;;29.84;36.57;100469.03;108385;1254;69795;-61
2023/09/28 12:19:44;;;;;;;7.00;4.00;;;;;;;29.90;36.81;100469.29;108400;1254;71597;-60
2023/09/28 12:22:12;;;;;;;10.00;4.50;;;;;;;29.95;36.31;100469.12;108213;1254;61003;-61
2023/09/28 12:24:41;;;;;;;5.90;4.50;;;;;;;29.96;35.98;100469.48;108157;1254;60218;-63
2023/09/28 12:27:10;;;;;;;5.80;4.30;;;;;;;30.02;34.99;100473.73;108191;1254;73719;-61
2023/09/28 12:29:38;;;;;;;;;;;;;;;30.11;34.46;100468.77;108231;1254;68355;-61
2023/09/28 12:32:05;;;;;;;6.40;3.90;;;;;;;30.18;34.56;100462.77;108150;1254;73575;-60
2023/09/28 12:34:33;;;;;;;7.50;4.20;;;;;;;30.22;34.76;100461.35;108160;1254;62750;-60
2023/09/28 12:37:01;;;;;;;;;;;;;;;30.26;34.03;100456.34;108331;1253;60068;-61
2023/09/28 12:39:29;;;;;;;6.10;4.30;;;;;;;30.32;34.34;100453.05;108386;1253;74702;-62
2023/09/28 12:41:58;;;;;;;;;;;;;;;30.35;34.15;100454.16;108326;1254;70224;-60
2023/09/28 12:44:28;;;;;;;6.80;4.30;;;;;;;30.41;33.96;100451.63;108390;1254;72480;-60
2023/09/28 12:46:55;;;;;;;6.20;4.60;;;;;;;30.47;33.95;100448.09;108289;1254;60201;-60
2023/09/28 12:49:24;;;;;;;9.90;4.30;;;;;;;30.49;33.50;100445.63;108490;1254;59946;-60
2023/09/28 12:51:51;;;;;;;7.70;4.50;;;;;;;30.56;33.73;100442.73;108349;1254;72748;-59
2023/09/28 12:54:19;;;;;;;;;;;;;;;30.65;33.74;100439.35;108480;1254;68256;-59
2023/09/28 12:56:47;;;;;;;5.20;4.70;;;;;;;30.73;33.57;100439.08;108291;1254;72450;-59
2023/09/28 12:59:15;;;;;;;7.70;4.70;;;;;;;30.82;33.65;100440.38;108339;1254;58853;-58
2023/09/28 13:01:48;;;;;;;7.00;4.50;;;;;;;30.95;33.93;100438.43;108405;1254;60505;-62
2023/09/28 13:04:16;;;;;;;7.30;4.20;;;;;;;31.11;33.30;100437.59;108294;1253;73665;-59
2023/09/28 13:06:45;;;;;;;8.40;4.60;;;;;;;31.30;32.67;100429.27;108341;1254;69638;-59
2023/09/28 13:09:14;;;;;;;5.50;4.90;;;;;;;31.46;32.74;100428.36;108442;1254;72332;-60
2023/09/28 13:11:43;;;;;;;7.40;4.30;;;;;;;31.57;32.12;100425.87;108325;1254;59933;-60
2023/09/28 13:14:11;;;;;;;8.10;4.60;;;;;;;31.61;32.09;100420.74;108278;1256;59823;-60
2023/09/28 13:16:39;;;;;;;9.30;4.10;;;;;;;31.66;32.06;100418.98;108280;1254;74471;-60
2023/09/28 13:19:08;;;;;;;6.70;4.70;;;;;;;31.79;32.46;100419.77;108400;1254;69180;-60
2023/09/28 13:21:36;;;;;;;5.60;4.30;;;;;;;31.98;32.45;100416.73;108323;1254;73361;-60
2023/09/28 13:24:06;;;;;;;;;;;;;;;32.18;32.20;100414.02;108256;1254;60703;-60
2023/09/28 13:26:42;;;;;;;6.80;4.30;;;;;;;32.38;31.82;100413.94;108228;1253;59466;-62
2023/09/28 13:29:10;;;;;;;6.80;4.20;;;;;;;32.53;31.62;100411.84;108356;1253;74696;-60
2023/09/28 13:31:38;;;;;;;8.90;4.70;;;;;;;32.75;31.08;100404.79;108394;1254;70265;-60
2023/09/28 13:34:06;;;;;;;6.00;3.60;;;;;;;32.90;31.15;100402.02;108437;1253;72498;-60
2023/09/28 13:36:34;;;;;;;6.50;4.40;;;;;;;33.00;30.90;100397.68;108411;1254;60255;-60
2023/09/28 13:39:04;;;;;;;4.60;4.10;;;;;;;33.08;30.47;100397.97;108426;1253;60006;-60
2023/09/28 13:41:33;;;;;;;7.00;4.50;;;;;;;33.18;30.52;100392.94;108339;1253;74330;-61
2023/09/28 13:44:00;;;;;;;7.40;4.00;;;;;;;33.23;30.74;100392.60;108323;1254;69923;-60
2023/09/28 13:46:28;;;;;;;6.60;4.40;;;;;;;33.28;30.36;100392.33;108281;1254;73432;-61
2023/09/28 13:48:56;;;;;;;7.00;4.40;;;;;;;33.33;30.17;100393.02;108362;1254;59817;-60
2023/09/28 13:51:24;;;;;;;;;;;;;;;33.32;28.93;100389.87;108319;1254;60118;-61
2023/09/28 13:53:52;;;;;;;4.60;4.10;;;;;;;33.35;29.35;100389.02;108404;1254;73908;-61
2023/09/28 13:56:20;;;;;;;6.10;4.00;;;;;;;33.35;29.40;100385.20;108321;1253;69217;-61
2023/09/28 13:58:47;;;;;;;9.80;4.60;;;;;;;33.39;29.30;100387.70;108303;1254;73923;-60
2023/09/28 14:01:16;;;;;;;6.50;4.20;;;;;;;33.36;29.09;100387.67;108280;1254;60126;-60
2023/09/28 14:03:45;;;;;;;4.80;4.40;;;;;;;33.35;28.65;100387.80;108404;1253;58836;-60
2023/09/28 14:06:14;;;;;;;9.60;4.30;;;;;;;33.39;28.42;100388.96;108404;1253;73707;-60
2023/09/28 14:08:44;;;;;;;7.00;4.00;;;;;;;33.41;28.55;100389.98;108260;1254;69015;-61
2023/09/28 14:11:12;;;;;;;5.10;4.50;;;;;;;33.40;28.72;100388.68;108347;1254;73007;-60
2023/09/28 14:13:40;;;;;;;7.30;4.50;;;;;;;33.42;28.97;100385.92;108272;1254;60404;-60
2023/09/28 14:16:08;;;;;;;6.50;4.40;;;;;;;33.47;29.07;100386.30;108281;1254;59822;-60
2023/09/28 14:18:36;;;;;;;6.90;4.40;;;;;;;33.48;29.50;100384.34;108414;1253;73644;-60
2023/09/28 14:21:04;;;;;;;9.30;4.30;;;;;;;33.39;29.37;100381.13;108431;1253;69393;-60
2023/09/28 14:23:32;;;;;;;4.60;4.00;;;;;;;33.31;29.52;100379.35;108151;1254;72503;-60
2023/09/28 14:26:00;;;;;;;6.00;4.30;;;;;;;33.21;30.06;100382.66;108144;1254;59843;-60
2023/09/28 14:28:29;;;;;;;5.30;4.10;;;;;;;33.13;30.19;100382.48;108186;1254;59664;-60
2023/09/28 14:30:57;;;;;;;6.50;4.40;;;;;;;33.05;30.27;100380.39;108305;1253;73636;-60
2023/09/28 14:33:24;;;;;;;6.20;4.60;;;;;;;32.95;30.27;100383.59;108307;1253;69075;-60
2023/09/28 14:35:54;;;;;;;13.40;4.70;;;;;;;32.83;30.77;100378.95;108201;1254;73145;-60
2023/09/28 14:38:22;;;;;;;7.80;4.70;;;;;;;32.69;30.60;100379.40;108201;1254;60210;-61
2023/09/28 14:40:50;;;;;;;7.90;4.60;;;;;;;32.57;30.91;100379.51;108385;1254;60729;-61
2023/09/28 14:43:18;;;;;;;6.40;4.60;;;;;;;32.44;31.03;100375.63;108493;1253;72886;-61
2023/09/28 14:45:46;;;;;;;10.50;4.60;;;;;;;32.28;31.57;100376.23;108411;1253;69732;-60
2023/09/28 14:48:13;;;;;;;;;;;;;;;32.09;31.83;100374.44;108361;1254;71651;-60
2023/09/28 14:50:41;;;;;;;6.50;4.20;;;;;;;31.91;32.22;100375.23;108398;1254;59829;-62
2023/09/28 14:53:15;;;;;;;7.10;4.20;;;;;;;31.71;32.36;100375.09;108357;1253;59816;-62
2023/09/28 14:55:43;;;;;;;5.30;4.80;;;;;;;31.52;32.47;100375.77;108345;1254;73930;-63
2023/09/28 14:58:11;;;;;;;11.50;4.50;;;;;;;31.30;32.96;100379.45;108336;1254;69532;-61
2023/09/28 15:00:39;;;;;;;6.00;4.20;;;;;;;31.02;33.12;100378.92;108439;1253;72499;-61
2023/09/28 15:03:07;;;;;;;7.40;4.20;;;;;;;30.73;33.69;100379.57;108304;1253;60214;-61
2023/09/28 15:05:36;;;;;;;4.90;4.50;;;;;;;30.45;34.38;100383.86;108274;1254;59880;-61
2023/09/28 15:08:04;;;;;;;7.30;4.50;;;;;;;30.16;34.90;100382.91;108316;1254;74514;-61
2023/09/28 15:10:32;;;;;;;8.10;4.80;;;;;;;29.91;35.23;100384.62;108391;1253;68401;-60
2023/09/28 15:12:59;;;;;;;7.50;4.40;;;;;;;29.70;35.78;100382.96;108372;1253;72188;-61